Time;durP1;ratioP1;P1;durP2;ratioP2;P2;SDS_P1;SDS_P2;PMS_P1;PMS_P2;Temp;Humidity;BMP_temperature;BMP_pressure;BME280_temperature;BME280_humidity;BME280_pressure;Samples;Min_cycle;Max_cycle;Signal;HPM_P1;HPM_P2
2022/11/09 00:00:04;;;;;;;6.38;2.33;;;13.30;99.90;;;;;;5030760;28;20045;-73
2022/11/09 00:02:30;;;;;;;4.65;1.60;;;13.30;99.90;;;;;;5030938;28;20054;-71
2022/11/09 00:04:56;;;;;;;5.93;1.90;;;13.30;99.90;;;;;;5029264;28;20055;-71
2022/11/09 00:07:21;;;;;;;4.95;1.65;;;13.30;99.90;;;;;;5032477;28;20046;-71
2022/11/09 00:09:47;;;;;;;7.57;2.55;;;13.20;99.90;;;;;;5038201;28;20505;-74
2022/11/09 00:12:12;;;;;;;2.85;1.60;;;13.30;99.90;;;;;;5038261;28;20045;-76
2022/11/09 00:14:38;;;;;;;3.53;1.60;;;13.30;99.90;;;;;;5045681;28;20043;-71
2022/11/09 00:17:04;;;;;;;5.78;1.88;;;13.20;99.90;;;;;;5050642;28;20486;-71
2022/11/09 00:19:30;;;;;;;4.05;1.98;;;13.20;99.90;;;;;;5045644;28;20619;-70
2022/11/09 00:21:55;;;;;;;12.73;2.10;;;13.10;99.90;;;;;;5048685;28;20505;-74
2022/11/09 00:24:21;;;;;;;6.68;2.05;;;13.10;99.90;;;;;;5040127;28;20041;-70
2022/11/09 00:26:47;;;;;;;3.72;1.65;;;13.10;99.90;;;;;;5043156;28;20047;-71
2022/11/09 00:29:12;;;;;;;2.72;1.75;;;13.10;99.90;;;;;;5034438;28;20084;-76
2022/11/09 00:31:38;;;;;;;6.43;1.92;;;13.10;99.90;;;;;;5037386;28;20041;-71
2022/11/09 00:34:04;;;;;;;6.55;1.85;;;13.10;99.90;;;;;;5036598;28;20071;-71
2022/11/09 00:36:29;;;;;;;3.05;1.55;;;13.20;99.90;;;;;;5028111;28;20060;-73
2022/11/09 00:38:58;;;;;;;4.70;2.17;;;13.20;99.90;;;;;;5029967;28;20049;-73
2022/11/09 00:41:24;;;;;;;6.25;1.90;;;13.20;99.90;;;;;;5029088;28;20424;-71
2022/11/09 00:43:51;;;;;;;3.97;1.92;;;13.20;99.90;;;;;;5030726;28;20447;-71
2022/11/09 00:46:20;;;;;;;4.20;1.67;;;13.20;99.90;;;;;;5029724;28;20060;-76
2022/11/09 00:48:45;;;;;;;6.05;1.73;;;13.20;99.90;;;;;;5037403;28;20056;-73
2022/11/09 00:51:12;;;;;;;5.28;2.10;;;13.20;99.90;;;;;;5046501;28;20045;-72
2022/11/09 00:53:38;;;;;;;4.13;1.58;;;13.30;99.90;;;;;;5043161;28;20045;-71
2022/11/09 00:56:04;;;;;;;;;;;13.40;99.90;;;;;;5039179;28;20045;-71
2022/11/09 00:58:32;;;;;;;2.45;1.42;;;13.30;99.90;;;;;;5034844;28;19999;-73
2022/11/09 01:00:59;;;;;;;4.68;1.70;;;13.30;99.90;;;;;;5072156;28;20075;-71
2022/11/09 01:03:25;;;;;;;7.47;1.90;;;13.40;99.90;;;;;;5032473;28;20120;-71
2022/11/09 01:05:52;;;;;;;7.47;1.73;;;13.40;99.90;;;;;;5028130;28;20103;-71
2022/11/09 01:08:18;;;;;;;8.27;2.10;;;13.50;99.90;;;;;;5030111;28;20084;-76
2022/11/09 01:10:47;;;;;;;5.38;1.90;;;13.50;99.90;;;;;;5041042;28;20048;-71
2022/11/09 01:13:14;;;;;;;5.55;1.50;;;13.60;99.90;;;;;;5050096;28;20486;-71
2022/11/09 01:15:49;;;;;;;6.20;1.67;;;13.60;99.90;;;;;;5047839;28;20075;-74
2022/11/09 01:18:16;;;;;;;4.18;1.58;;;13.60;99.90;;;;;;5037643;28;20491;-75
2022/11/09 01:20:44;;;;;;;7.32;2.42;;;13.60;99.90;;;;;;5030965;28;20091;-71
2022/11/09 01:23:11;;;;;;;3.63;1.52;;;13.60;99.90;;;;;;5050380;28;20049;-71
2022/11/09 01:25:37;;;;;;;3.92;1.80;;;13.60;99.90;;;;;;5049458;28;20060;-71
2022/11/09 01:28:05;;;;;;;5.75;2.08;;;13.50;99.90;;;;;;5049741;28;20498;-71
2022/11/09 01:30:34;;;;;;;3.50;1.70;;;13.50;99.90;;;;;;5046481;28;20053;-72
2022/11/09 01:33:03;;;;;;;5.82;2.17;;;13.50;99.90;;;;;;5029609;28;20050;-71
2022/11/09 01:35:31;;;;;;;6.05;1.95;;;13.50;99.90;;;;;;5046298;28;20533;-71
2022/11/09 01:37:56;;;;;;;4.32;1.67;;;13.50;99.90;;;;;;5039785;28;20049;-71
2022/11/09 01:40:22;;;;;;;2.72;1.35;;;13.50;99.90;;;;;;5031726;28;20053;-71
2022/11/09 01:42:48;;;;;;;3.65;1.60;;;13.50;99.90;;;;;;5033927;28;20053;-71
2022/11/09 01:45:16;;;;;;;10.15;2.15;;;13.40;99.90;;;;;;5054069;28;20052;-75
2022/11/09 01:47:44;;;;;;;7.22;1.70;;;13.40;99.90;;;;;;5053840;28;20053;-72
2022/11/09 01:50:12;;;;;;;8.43;1.83;;;13.40;99.90;;;;;;5052052;28;20065;-70
2022/11/09 01:52:41;;;;;;;3.65;1.80;;;13.40;99.90;;;;;;5033492;28;20499;-75
2022/11/09 01:55:17;;;;;;;6.60;1.65;;;13.30;99.90;;;;;;5048313;28;20041;-71
2022/11/09 01:58:01;;;;;;;6.13;1.50;;;13.30;99.90;;;;;;5038498;28;20073;-71
2022/11/09 02:00:27;;;;;;;7.15;1.85;;;13.30;99.90;;;;;;5036399;28;20041;-71
2022/11/09 02:03:10;;;;;;;6.85;1.83;;;13.30;99.90;;;;;;5054034;28;20055;-71
2022/11/09 02:05:38;;;;;;;3.50;1.30;;;13.20;99.90;;;;;;5051023;28;20127;-72
2022/11/09 02:08:06;;;;;;;4.32;1.60;;;13.20;99.90;;;;;;5053954;28;20056;-72
2022/11/09 02:10:42;;;;;;;8.73;1.63;;;13.20;99.90;;;;;;5052587;28;20049;-71
2022/11/09 02:13:11;;;;;;;7.68;1.60;;;13.10;99.90;;;;;;5050485;28;20060;-71
2022/11/09 02:15:37;;;;;;;4.32;1.40;;;13.10;99.90;;;;;;5047719;28;20055;-72
2022/11/09 02:18:03;;;;;;;4.50;1.60;;;13.00;99.90;;;;;;5053781;28;20049;-71
2022/11/09 02:20:29;;;;;;;5.43;1.60;;;13.10;99.90;;;;;;5038639;28;20080;-71
2022/11/09 02:22:55;;;;;;;4.65;1.67;;;13.00;99.90;;;;;;5033795;28;20095;-70
2022/11/09 02:25:21;;;;;;;5.40;1.92;;;13.00;99.90;;;;;;5048868;28;20053;-75
2022/11/09 02:27:47;;;;;;;5.38;1.80;;;13.00;99.90;;;;;;5053261;28;20487;-71
2022/11/09 02:30:14;;;;;;;7.38;1.48;;;13.00;99.90;;;;;;5052941;28;20049;-71
2022/11/09 02:32:40;;;;;;;;;;;13.00;99.90;;;;;;5053343;28;20053;-71
2022/11/09 02:35:06;;;;;;;3.65;1.42;;;12.90;99.90;;;;;;5049987;28;19921;-72
2022/11/09 02:37:37;;;;;;;4.22;1.70;;;12.80;99.90;;;;;;5050529;28;20045;-71
2022/11/09 02:40:07;;;;;;;4.38;1.42;;;12.80;99.90;;;;;;5051189;28;20498;-71
2022/11/09 02:42:33;;;;;;;9.07;2.22;;;12.80;99.90;;;;;;5052191;28;20053;-75
2022/11/09 02:44:59;;;;;;;;;;;12.70;99.90;;;;;;5051989;28;20148;-75
2022/11/09 02:47:25;;;;;;;6.80;1.67;;;12.70;99.90;;;;;;5052809;28;20015;-76
2022/11/09 02:49:51;;;;;;;3.85;1.38;;;12.70;99.90;;;;;;5051404;28;20091;-76
2022/11/09 02:52:18;;;;;;;6.35;1.52;;;12.70;99.90;;;;;;5052876;28;20402;-71
2022/11/09 02:54:44;;;;;;;;;;;12.70;99.90;;;;;;5049850;28;20049;-71
2022/11/09 02:57:10;;;;;;;6.55;1.88;;;12.70;99.90;;;;;;5051420;28;19921;-71
2022/11/09 02:59:36;;;;;;;6.68;1.60;;;12.70;99.90;;;;;;5051826;28;20103;-71
2022/11/09 03:02:01;;;;;;;8.48;1.75;;;12.80;99.90;;;;;;5051588;28;20041;-71
2022/11/09 03:04:27;;;;;;;4.93;1.50;;;12.80;99.90;;;;;;5034809;28;20518;-75
2022/11/09 03:06:53;;;;;;;8.30;1.95;;;12.70;99.90;;;;;;5031647;28;20041;-71
2022/11/09 03:09:18;;;;;;;5.70;1.77;;;12.70;99.90;;;;;;5033165;28;20049;-71
2022/11/09 03:11:44;;;;;;;8.55;2.10;;;12.70;99.90;;;;;;5047568;28;20045;-71
2022/11/09 03:14:10;;;;;;;7.90;2.15;;;12.70;99.90;;;;;;5064705;28;20128;-73
2022/11/09 03:16:36;;;;;;;7.65;2.22;;;12.70;99.90;;;;;;5031992;28;20457;-71
2022/11/09 03:19:02;;;;;;;5.78;1.92;;;12.70;99.90;;;;;;5031401;28;20510;-73
2022/11/09 03:21:28;;;;;;;6.78;1.77;;;12.80;99.90;;;;;;5037081;28;20131;-76
2022/11/09 03:23:54;;;;;;;;;;;12.70;99.90;;;;;;5037087;28;20041;-71
2022/11/09 03:26:20;;;;;;;5.95;1.65;;;12.70;99.90;;;;;;5051428;28;20381;-71
2022/11/09 03:28:46;;;;;;;8.52;1.75;;;12.60;99.90;;;;;;5051836;28;20049;-71
2022/11/09 03:31:12;;;;;;;5.38;1.73;;;12.60;99.90;;;;;;5051665;28;20052;-71
2022/11/09 03:33:38;;;;;;;;;;;12.60;99.90;;;;;;5052124;28;20601;-70
2022/11/09 03:36:04;;;;;;;7.18;1.80;;;12.50;99.90;;;;;;5041226;28;19932;-73
2022/11/09 03:38:30;;;;;;;8.20;2.13;;;12.50;99.90;;;;;;5063838;28;20045;-76
2022/11/09 03:40:59;;;;;;;5.13;1.55;;;12.50;99.90;;;;;;5049702;28;20048;-71
2022/11/09 03:43:25;;;;;;;8.50;2.20;;;12.50;99.90;;;;;;5049482;28;20061;-73
2022/11/09 03:45:50;;;;;;;7.18;1.52;;;12.60;99.90;;;;;;5050647;28;20379;-71
2022/11/09 03:48:16;;;;;;;6.93;1.75;;;12.50;99.90;;;;;;5051734;28;20059;-71
2022/11/09 03:50:42;;;;;;;5.10;1.70;;;12.50;99.90;;;;;;5048412;28;20049;-72
2022/11/09 03:53:09;;;;;;;5.45;1.73;;;12.50;99.90;;;;;;5051796;28;20052;-71
2022/11/09 03:55:35;;;;;;;5.15;1.70;;;12.50;99.90;;;;;;5050674;28;20067;-70
2022/11/09 03:58:02;;;;;;;2.70;1.27;;;12.50;99.90;;;;;;5049132;28;20379;-72
2022/11/09 04:00:28;;;;;;;7.28;1.70;;;12.50;99.90;;;;;;5050623;28;20048;-75
2022/11/09 04:02:53;;;;;;;7.65;1.55;;;12.50;99.90;;;;;;5050801;28;20138;-71
2022/11/09 04:05:20;;;;;;;6.45;1.35;;;12.50;99.90;;;;;;5043802;28;20492;-71
2022/11/09 04:07:47;;;;;;;5.47;2.13;;;12.50;99.90;;;;;;5039907;28;20048;-73
2022/11/09 04:10:13;;;;;;;4.07;1.60;;;12.50;99.90;;;;;;5083629;28;20088;-70
2022/11/09 04:12:38;;;;;;;4.00;1.42;;;12.50;99.90;;;;;;5050934;28;20616;-71
2022/11/09 04:15:05;;;;;;;8.52;2.00;;;12.50;99.90;;;;;;5050763;28;20052;-71
2022/11/09 04:17:30;;;;;;;;;;;12.60;99.90;;;;;;5067290;28;20536;-75
2022/11/09 04:19:56;;;;;;;5.10;1.95;;;12.60;99.90;;;;;;5047570;28;19921;-71
2022/11/09 04:22:21;;;;;;;5.90;1.65;;;12.70;99.90;;;;;;5050236;28;20052;-71
2022/11/09 04:24:47;;;;;;;7.07;1.98;;;12.70;99.90;;;;;;5049428;28;20048;-71
2022/11/09 04:27:13;;;;;;;3.25;1.83;;;12.80;99.90;;;;;;5051051;28;20102;-71
2022/11/09 04:29:38;;;;;;;10.15;2.00;;;12.80;99.90;;;;;;5049796;28;20124;-72
2022/11/09 04:32:04;;;;;;;9.25;1.92;;;12.80;99.90;;;;;;5051001;28;20386;-71
2022/11/09 04:34:32;;;;;;;5.47;1.88;;;12.80;99.90;;;;;;5049302;28;20503;-73
2022/11/09 04:36:57;;;;;;;4.07;1.83;;;12.80;99.90;;;;;;5048272;28;20036;-71
2022/11/09 04:39:23;;;;;;;5.82;1.80;;;12.80;99.90;;;;;;5063685;28;20101;-71
2022/11/09 04:41:49;;;;;;;4.53;2.13;;;12.80;99.90;;;;;;5031747;28;20124;-71
2022/11/09 04:44:14;;;;;;;7.10;1.52;;;12.80;99.90;;;;;;5050432;28;20052;-72
2022/11/09 04:46:41;;;;;;;5.47;1.60;;;12.70;99.90;;;;;;5048779;28;20057;-71
2022/11/09 04:49:07;;;;;;;5.55;1.60;;;12.70;99.90;;;;;;5049791;28;20084;-71
2022/11/09 04:51:32;;;;;;;7.82;2.00;;;12.60;99.90;;;;;;5049664;28;20128;-75
2022/11/09 04:53:58;;;;;;;2.72;1.55;;;12.60;99.90;;;;;;5050449;28;20110;-71
2022/11/09 04:56:24;;;;;;;3.75;1.52;;;12.60;99.90;;;;;;5050813;28;20045;-71
2022/11/09 04:58:49;;;;;;;4.95;1.85;;;12.60;99.90;;;;;;5048873;28;20052;-72
2022/11/09 05:01:15;;;;;;;5.88;1.80;;;12.50;99.90;;;;;;5048221;28;20045;-71
2022/11/09 05:03:41;;;;;;;5.50;1.48;;;12.50;99.90;;;;;;5049895;28;20049;-71
2022/11/09 05:09:05;;;;;;;5.82;1.80;;;12.50;99.90;;;;;;5032535;28;20044;-71
2022/11/09 05:11:32;;;;;;;4.75;1.70;;;12.50;99.90;;;;;;5050000;28;20111;-71
2022/11/09 05:13:58;;;;;;;5.60;1.58;;;12.50;99.90;;;;;;5049622;28;20037;-74
2022/11/09 05:16:24;;;;;;;8.10;1.92;;;12.50;99.90;;;;;;5049664;28;20045;-70
2022/11/09 05:18:51;;;;;;;6.35;1.98;;;12.40;99.90;;;;;;5048820;28;20098;-75
2022/11/09 05:21:17;;;;;;;6.82;1.58;;;12.40;99.90;;;;;;5048229;28;20049;-71
2022/11/09 05:23:58;;;;;;;6.35;2.05;;;12.40;99.90;;;;;;5046485;28;20506;-73
2022/11/09 05:26:31;;;;;;;6.13;1.70;;;12.40;99.90;;;;;;5031486;28;20041;-71
2022/11/09 05:28:58;;;;;;;4.15;1.67;;;12.40;99.90;;;;;;5048420;28;20257;-71
2022/11/09 05:31:25;;;;;;;5.63;1.60;;;12.40;99.90;;;;;;5049639;28;20474;-71
2022/11/09 05:33:51;;;;;;;2.75;1.25;;;12.40;99.90;;;;;;5048424;28;20052;-75
2022/11/09 05:36:17;;;;;;;10.80;1.70;;;12.40;99.90;;;;;;5048686;28;20094;-71
2022/11/09 05:38:43;;;;;;;2.95;1.38;;;12.40;99.90;;;;;;5049126;28;20058;-71
2022/11/09 05:41:09;;;;;;;4.22;1.45;;;12.40;99.90;;;;;;5050223;28;20041;-71
2022/11/09 05:43:35;;;;;;;;;;;12.30;99.90;;;;;;5050046;28;20060;-71
2022/11/09 05:46:01;;;;;;;7.93;1.77;;;12.30;99.90;;;;;;5049258;28;19932;-72
2022/11/09 05:48:26;;;;;;;2.83;1.63;;;12.40;99.90;;;;;;5046478;28;20053;-71
2022/11/09 05:50:52;;;;;;;3.72;1.48;;;12.40;99.90;;;;;;5047289;28;20045;-71
2022/11/09 05:53:18;;;;;;;6.53;1.70;;;12.40;99.90;;;;;;5048292;28;20128;-71
2022/11/09 05:55:43;;;;;;;7.03;1.52;;;12.40;99.90;;;;;;5048061;28;20044;-73
2022/11/09 05:58:09;;;;;;;5.00;1.50;;;12.30;99.90;;;;;;5049735;28;20044;-71
2022/11/09 06:00:35;;;;;;;7.78;1.50;;;12.30;99.90;;;;;;5049391;28;20040;-71
2022/11/09 06:03:06;;;;;;;2.70;1.38;;;12.20;99.90;;;;;;5064438;28;20146;-72
2022/11/09 06:05:34;;;;;;;7.28;1.83;;;12.20;99.90;;;;;;5047511;28;20102;-70
2022/11/09 06:08:09;;;;;;;5.15;1.60;;;12.20;99.90;;;;;;5049183;28;20678;-71
2022/11/09 06:10:35;;;;;;;3.13;1.45;;;12.20;99.90;;;;;;5040624;28;20127;-71
2022/11/09 06:13:01;;;;;;;5.57;1.63;;;12.10;99.90;;;;;;5047476;28;20045;-70
2022/11/09 06:15:27;;;;;;;3.15;1.30;;;12.10;99.90;;;;;;5029563;28;20041;-71
2022/11/09 06:17:54;;;;;;;4.90;1.63;;;12.10;99.90;;;;;;5029500;28;20068;-71
2022/11/09 06:20:20;;;;;;;8.63;2.35;;;12.10;99.90;;;;;;5026689;28;20541;-71
2022/11/09 06:22:57;;;;;;;10.00;2.78;;;12.10;99.90;;;;;;5043070;28;20568;-72
2022/11/09 06:25:23;;;;;;;5.70;1.50;;;12.00;99.90;;;;;;5049772;28;20051;-71
2022/11/09 06:27:49;;;;;;;;;;;12.00;99.90;;;;;;5049494;28;20550;-71
2022/11/09 06:30:15;;;;;;;3.10;1.40;;;12.00;99.90;;;;;;5052802;28;20035;-71
2022/11/09 06:32:40;;;;;;;7.07;1.50;;;12.00;99.90;;;;;;5041974;28;20045;-74
2022/11/09 06:35:07;;;;;;;6.13;2.05;;;12.00;99.90;;;;;;5048773;28;20585;-71
2022/11/09 06:37:33;;;;;;;4.80;1.50;;;12.00;99.90;;;;;;5045871;28;20099;-70
2022/11/09 06:39:58;;;;;;;9.70;1.75;;;12.00;99.90;;;;;;5043757;28;20446;-70
2022/11/09 06:42:24;;;;;;;7.38;1.67;;;12.00;99.90;;;;;;5051936;28;20376;-71
2022/11/09 06:44:50;;;;;;;7.10;1.80;;;12.00;99.90;;;;;;5051302;28;20099;-71
2022/11/09 06:47:15;;;;;;;4.93;1.60;;;11.90;99.90;;;;;;5053176;28;20060;-71
2022/11/09 06:49:41;;;;;;;5.53;1.75;;;11.90;99.90;;;;;;5051986;28;20053;-71
2022/11/09 06:52:07;;;;;;;10.70;2.00;;;11.90;99.90;;;;;;5051188;28;20770;-71
2022/11/09 06:54:33;;;;;;;9.77;2.00;;;11.90;99.90;;;;;;5043393;28;20045;-74
2022/11/09 06:56:59;;;;;;;;;;;11.90;99.90;;;;;;5052558;28;20107;-70
2022/11/09 06:59:24;;;;;;;6.78;1.45;;;11.90;99.90;;;;;;5033153;28;19925;-75
2022/11/09 07:01:50;;;;;;;8.00;1.80;;;11.90;99.90;;;;;;5053030;28;20055;-75
2022/11/09 07:04:16;;;;;;;6.43;1.40;;;11.90;99.90;;;;;;5052080;28;20048;-75
2022/11/09 07:06:42;;;;;;;9.95;2.08;;;11.90;99.90;;;;;;5052560;28;20128;-76
2022/11/09 07:09:09;;;;;;;5.63;1.35;;;11.90;99.90;;;;;;5042523;28;20545;-71
2022/11/09 07:11:35;;;;;;;7.57;1.60;;;11.80;99.90;;;;;;5032825;28;20384;-73
2022/11/09 07:14:01;;;;;;;7.43;1.70;;;11.70;99.90;;;;;;5032038;28;20049;-70
2022/11/09 07:16:28;;;;;;;5.75;1.88;;;11.80;99.90;;;;;;5046560;28;20539;-72
2022/11/09 07:18:54;;;;;;;8.80;1.67;;;11.70;99.90;;;;;;5035917;28;20077;-76
2022/11/09 07:21:20;;;;;;;9.20;1.70;;;11.70;99.90;;;;;;5033505;28;20156;-71
2022/11/09 07:23:47;;;;;;;6.90;1.67;;;11.70;99.90;;;;;;5049370;28;20053;-75
2022/11/09 07:26:14;;;;;;;4.22;1.95;;;11.70;99.90;;;;;;5032219;28;20081;-71
2022/11/09 07:28:39;;;;;;;5.65;1.88;;;11.70;99.90;;;;;;5032603;28;20049;-71
2022/11/09 07:31:05;;;;;;;5.32;1.83;;;11.70;99.90;;;;;;5031320;28;20057;-71
2022/11/09 07:33:32;;;;;;;5.97;1.70;;;11.80;99.90;;;;;;5032472;28;20049;-71
2022/11/09 07:36:03;;;;;;;5.70;1.55;;;11.80;99.90;;;;;;5029131;28;20521;-71
2022/11/09 07:38:29;;;;;;;5.82;1.30;;;11.80;99.90;;;;;;5033553;28;20045;-71
2022/11/09 07:40:59;;;;;;;;;;;11.90;99.90;;;;;;5049699;28;20755;-71
2022/11/09 07:43:24;;;;;;;5.13;1.80;;;11.90;99.90;;;;;;5050746;28;19925;-71
2022/11/09 07:45:50;;;;;;;5.15;1.88;;;11.90;99.90;;;;;;5051215;28;20198;-76
2022/11/09 07:48:16;;;;;;;3.78;1.25;;;12.00;99.90;;;;;;5036182;28;20053;-71
2022/11/09 07:50:42;;;;;;;6.05;1.55;;;12.00;99.90;;;;;;5049715;28;20052;-71
2022/11/09 07:53:12;;;;;;;6.78;2.72;;;12.00;99.90;;;;;;5051413;28;20131;-73
2022/11/09 07:55:38;;;;;;;9.23;1.92;;;12.00;99.90;;;;;;5065940;28;20060;-71
2022/11/09 07:58:06;;;;;;;7.57;1.90;;;12.10;99.90;;;;;;5048409;28;20053;-71
2022/11/09 08:00:34;;;;;;;4.78;1.45;;;12.10;99.90;;;;;;5048476;28;20072;-74
2022/11/09 08:03:00;;;;;;;5.30;1.50;;;12.20;99.90;;;;;;5043120;28;20526;-72
2022/11/09 08:05:26;;;;;;;;;;;12.20;99.90;;;;;;5041105;28;20120;-70
2022/11/09 08:07:56;;;;;;;7.78;2.00;;;12.20;99.90;;;;;;5040530;28;20011;-74
2022/11/09 08:10:24;;;;;;;11.68;1.95;;;12.20;99.90;;;;;;5036194;28;20056;-71
2022/11/09 08:12:58;;;;;;;8.27;2.13;;;12.20;99.90;;;;;;5050906;28;20033;-75
2022/11/09 08:15:25;;;;;;;9.65;1.95;;;12.20;99.90;;;;;;5041568;28;20079;-73
2022/11/09 08:17:51;;;;;;;10.65;2.28;;;12.20;99.90;;;;;;5037849;28;20110;-76
2022/11/09 08:20:17;;;;;;;6.32;2.33;;;12.30;99.90;;;;;;5042767;28;20494;-72
2022/11/09 08:22:44;;;;;;;9.68;1.67;;;12.30;99.90;;;;;;5040184;28;20116;-71
2022/11/09 08:25:10;;;;;;;10.85;1.85;;;12.30;99.90;;;;;;5042492;28;20064;-73
2022/11/09 08:27:39;;;;;;;5.38;1.55;;;12.40;99.90;;;;;;5074312;28;20484;-71
2022/11/09 08:30:12;;;;;;;12.32;1.80;;;12.40;99.90;;;;;;5044932;28;20128;-72
2022/11/09 08:32:39;;;;;;;9.85;1.70;;;12.40;99.90;;;;;;5044731;28;20548;-72
2022/11/09 08:35:05;;;;;;;5.47;1.50;;;12.40;99.90;;;;;;5040555;28;20091;-74
2022/11/09 08:37:33;;;;;;;8.93;1.95;;;12.40;99.90;;;;;;5079507;28;20132;-73
2022/11/09 08:39:59;;;;;;;8.55;2.10;;;12.40;99.90;;;;;;5044730;28;20051;-75
2022/11/09 08:42:24;;;;;;;10.55;1.65;;;12.50;99.90;;;;;;5044100;28;20053;-76
2022/11/09 08:44:50;;;;;;;5.38;1.48;;;12.60;99.90;;;;;;5080020;28;20134;-77
2022/11/09 08:47:16;;;;;;;17.13;2.13;;;12.60;99.90;;;;;;5046083;28;20052;-73
2022/11/09 08:49:43;;;;;;;7.75;2.03;;;12.70;99.90;;;;;;5048281;28;20100;-71
2022/11/09 08:52:09;;;;;;;12.52;1.90;;;12.80;99.90;;;;;;5042138;28;20045;-71
2022/11/09 08:54:35;;;;;;;10.90;2.25;;;12.80;99.90;;;;;;5049825;28;20098;-73
2022/11/09 08:57:01;;;;;;;6.43;1.80;;;12.90;99.90;;;;;;5036753;28;20559;-74
2022/11/09 08:59:27;;;;;;;5.75;1.67;;;12.90;99.90;;;;;;5050956;28;20045;-78
2022/11/09 09:01:53;;;;;;;7.20;1.60;;;12.90;99.90;;;;;;5048880;28;20080;-77
2022/11/09 09:04:18;;;;;;;9.00;1.98;;;12.90;99.90;;;;;;5044945;28;20056;-75
2022/11/09 09:06:44;;;;;;;7.00;1.58;;;12.90;99.90;;;;;;5029563;28;20045;-75
2022/11/09 09:09:10;;;;;;;5.57;1.50;;;12.90;99.90;;;;;;5038005;28;20056;-76
2022/11/09 09:11:35;;;;;;;9.23;2.28;;;12.90;99.90;;;;;;5081990;28;20597;-76
2022/11/09 09:14:01;;;;;;;10.80;2.13;;;13.00;99.90;;;;;;5029639;28;20079;-71
2022/11/09 09:16:27;;;;;;;5.93;1.83;;;13.10;99.90;;;;;;5042322;28;20041;-78
2022/11/09 09:18:53;;;;;;;9.88;2.63;;;13.10;99.90;;;;;;5030828;28;20407;-76
2022/11/09 09:21:19;;;;;;;13.85;2.53;;;13.20;99.90;;;;;;5040664;28;20040;-70
2022/11/09 09:23:49;;;;;;;8.13;2.13;;;13.30;99.90;;;;;;5042849;28;20056;-72
2022/11/09 09:26:15;;;;;;;6.25;2.10;;;13.30;99.90;;;;;;5045917;28;20152;-76
2022/11/09 09:28:41;;;;;;;13.43;2.78;;;13.40;99.90;;;;;;5041980;28;20053;-75
2022/11/09 09:31:07;;;;;;;9.75;2.05;;;13.50;99.90;;;;;;5040194;28;20045;-73
2022/11/09 09:33:33;;;;;;;;;;;13.50;99.90;;;;;;5081015;28;20048;-73
2022/11/09 09:35:59;;;;;;;9.18;1.73;;;13.60;99.90;;;;;;5044452;28;19924;-77
2022/11/09 09:38:26;;;;;;;28.35;2.55;;;13.70;99.90;;;;;;5042844;28;20494;-74
2022/11/09 09:41:00;;;;;;;10.27;2.00;;;13.70;99.90;;;;;;5048060;28;20064;-73
2022/11/09 09:43:34;;;;;;;4.65;1.55;;;13.80;99.90;;;;;;5048667;28;20060;-75
2022/11/09 09:46:03;;;;;;;4.78;1.92;;;13.90;99.90;;;;;;5046532;28;20060;-76
2022/11/09 09:48:43;;;;;;;8.10;2.00;;;13.90;99.90;;;;;;5047844;28;20124;-74
2022/11/09 09:51:48;;;;;;;8.02;2.53;;;13.90;99.90;;;;;;5040954;28;20041;-75
2022/11/09 09:54:17;;;;;;;5.15;1.85;;;14.00;99.90;;;;;;5040900;28;20430;-73
2022/11/09 09:56:45;;;;;;;11.55;2.03;;;14.00;99.90;;;;;;5048739;28;20083;-73
2022/11/09 09:59:23;;;;;;;5.93;1.85;;;13.90;99.90;;;;;;5048219;28;20490;-74
2022/11/09 10:01:49;;;;;;;7.30;2.00;;;13.90;99.90;;;;;;5045759;28;20041;-73
2022/11/09 10:04:30;;;;;;;;;;;13.90;99.90;;;;;;5050769;28;20121;-78
2022/11/09 10:07:50;;;;;;;11.38;1.95;;;13.80;99.90;;;;;;5045315;28;20386;-76
2022/11/09 10:10:33;;;;;;;6.53;2.13;;;13.90;99.90;;;;;;5027388;28;20050;-78
2022/11/09 10:13:17;;;;;;;6.40;1.70;;;14.10;99.90;;;;;;5032631;28;20064;-77
2022/11/09 10:15:50;;;;;;;7.22;1.92;;;14.20;99.90;;;;;;5042808;28;20084;-73
2022/11/09 10:18:24;;;;;;;12.13;2.10;;;14.30;99.90;;;;;;5053096;28;20060;-73
2022/11/09 10:21:12;;;;;;;9.52;2.40;;;14.30;99.90;;;;;;5046324;28;20128;-75
2022/11/09 10:24:14;;;;;;;7.65;2.25;;;14.20;99.90;;;;;;5033928;28;20053;-76
2022/11/09 10:26:48;;;;;;;10.25;2.00;;;14.20;99.90;;;;;;5048627;28;20413;-77
2022/11/09 10:29:18;;;;;;;8.65;2.22;;;14.10;99.90;;;;;;5043174;28;20160;-77
2022/11/09 10:31:45;;;;;;;7.15;1.90;;;14.00;99.90;;;;;;5045490;28;20722;-77
2022/11/09 10:34:28;;;;;;;6.15;1.90;;;14.10;99.90;;;;;;5047867;28;20037;-77
2022/11/09 10:37:02;;;;;;;6.43;1.80;;;14.30;99.90;;;;;;5032634;28;20518;-78
2022/11/09 10:39:37;;;;;;;11.57;2.55;;;14.40;99.90;;;;;;5033131;28;20053;-78
2022/11/09 10:42:04;;;;;;;9.15;2.00;;;14.60;99.90;;;;;;5046352;28;20080;-76
2022/11/09 10:44:30;;;;;;;6.57;1.73;;;14.80;99.90;;;;;;5036525;28;20158;-76
2022/11/09 10:47:11;;;;;;;6.63;1.73;;;15.00;99.90;;;;;;5038929;28;20051;-73
2022/11/09 10:49:37;;;;;;;6.95;1.77;;;15.10;99.90;;;;;;5049631;28;20471;-74
2022/11/09 10:52:05;;;;;;;7.65;1.90;;;15.20;99.90;;;;;;5031858;28;20034;-76
2022/11/09 10:54:34;;;;;;;8.88;1.95;;;15.40;99.90;;;;;;5032664;28;20041;-72
2022/11/09 10:57:22;;;;;;;10.57;2.10;;;15.50;99.90;;;;;;5041737;28;20483;-75
2022/11/09 10:59:56;;;;;;;7.38;1.73;;;15.60;99.90;;;;;;5052222;28;20049;-72
2022/11/09 11:02:25;;;;;;;8.48;1.40;;;16.00;99.90;;;;;;5052339;28;20041;-74
2022/11/09 11:05:14;;;;;;;16.52;2.72;;;16.10;99.90;;;;;;5047518;28;20528;-76
2022/11/09 11:07:39;;;;;;;6.55;1.85;;;16.10;99.90;;;;;;5051508;28;20554;-75
2022/11/09 11:10:14;;;;;;;7.05;1.65;;;16.20;99.90;;;;;;5050839;28;20119;-76
2022/11/09 11:12:50;;;;;;;9.45;1.77;;;16.30;99.90;;;;;;5052086;28;20076;-74
2022/11/09 11:15:31;;;;;;;6.57;1.88;;;16.40;99.90;;;;;;5046635;28;20045;-78
2022/11/09 11:18:11;;;;;;;7.80;2.00;;;16.30;99.90;;;;;;5043636;28;20044;-75
2022/11/09 11:20:37;;;;;;;8.15;1.58;;;16.70;99.90;;;;;;5038175;28;20538;-75
2022/11/09 11:23:23;;;;;;;;;;;17.20;99.90;;;;;;5077400;28;20128;-73
2022/11/09 11:26:11;;;;;;;6.03;1.70;;;17.20;99.90;;;;;;5042245;28;19925;-75
2022/11/09 11:28:51;;;;;;;9.07;1.60;;;16.70;99.90;;;;;;5041678;28;20053;-73
2022/11/09 11:31:18;;;;;;;7.55;1.83;;;16.20;99.90;;;;;;5044651;28;20406;-73
2022/11/09 11:33:44;;;;;;;6.90;1.95;;;15.80;99.90;;;;;;5033222;28;20120;-73
2022/11/09 11:36:35;;;;;;;7.40;1.48;;;15.50;99.90;;;;;;5033756;28;20471;-77
2022/11/09 11:39:10;;;;;;;10.18;1.60;;;15.30;99.90;;;;;;5038312;28;20087;-74
2022/11/09 11:41:53;;;;;;;3.67;1.42;;;15.10;99.90;;;;;;5035741;28;20388;-76
2022/11/09 11:44:37;;;;;;;8.32;1.70;;;15.00;99.90;;;;;;5032220;28;20064;-73
2022/11/09 11:47:23;;;;;;;7.78;1.60;;;14.70;99.90;;;;;;5043142;28;20505;-76
2022/11/09 11:50:00;;;;;;;6.53;1.55;;;14.70;99.90;;;;;;5043477;28;20060;-73
2022/11/09 11:52:40;;;;;;;;;;;14.50;99.90;;;;;;5038745;28;20052;-73
2022/11/09 11:55:44;;;;;;;11.13;1.85;;;14.40;99.90;;;;;;5047367;28;20390;-75
2022/11/09 11:58:18;;;;;;;9.80;2.05;;;14.30;99.90;;;;;;5018689;28;20056;-77
2022/11/09 12:00:59;;;;;;;9.90;1.80;;;14.20;99.90;;;;;;5035944;28;20048;-73
2022/11/09 12:03:40;;;;;;;8.82;1.92;;;14.10;99.90;;;;;;5033006;28;20085;-73
2022/11/09 12:06:50;;;;;;;12.05;1.70;;;14.00;99.90;;;;;;5079570;28;20398;-72
2022/11/09 12:09:41;;;;;;;6.47;1.65;;;14.00;99.90;;;;;;5023433;28;20054;-73
2022/11/09 12:12:09;;;;;;;6.45;1.65;;;14.20;99.90;;;;;;5044630;28;20037;-74
2022/11/09 12:14:48;;;;;;;7.78;1.50;;;14.50;99.90;;;;;;5030096;28;20056;-73
2022/11/09 12:17:27;;;;;;;4.57;1.10;;;15.40;99.90;;;;;;5029784;28;20052;-75
2022/11/09 12:20:23;;;;;;;8.25;1.80;;;16.00;99.90;;;;;;5036178;28;20055;-74
2022/11/09 12:23:19;;;;;;;7.53;1.40;;;16.10;99.90;;;;;;5030326;28;20049;-73
2022/11/09 12:26:24;;;;;;;4.85;1.27;;;15.70;99.90;;;;;;5076601;28;20052;-75
2022/11/09 12:29:14;;;;;;;7.65;1.70;;;15.20;99.90;;;;;;5042930;28;20395;-73
2022/11/09 12:31:56;;;;;;;6.90;1.58;;;14.90;99.90;;;;;;5029982;28;20384;-72
2022/11/09 12:34:47;;;;;;;6.78;1.25;;;14.70;99.90;;;;;;5033553;28;20053;-74
2022/11/09 12:37:19;;;;;;;14.05;1.70;;;14.50;99.90;;;;;;5033327;28;20699;-75
2022/11/09 12:39:47;;;;;;;9.48;1.55;;;14.50;99.90;;;;;;5039836;28;20073;-74
2022/11/09 12:42:22;;;;;;;3.50;1.17;;;14.50;99.90;;;;;;5028692;28;20422;-79
2022/11/09 12:45:23;;;;;;;6.78;1.88;;;14.60;99.90;;;;;;5037276;28;20072;-75
2022/11/09 12:47:53;;;;;;;6.15;1.73;;;15.70;99.90;;;;;;5035120;28;20040;-74
2022/11/09 12:50:22;;;;;;;11.60;1.42;;;16.60;99.90;;;;;;5035882;28;20053;-79
2022/11/09 12:52:51;;;;;;;2.65;1.10;;;17.00;99.90;;;;;;5073329;28;20037;-74
2022/11/09 12:55:45;;;;;;;8.73;2.03;;;16.70;99.90;;;;;;5041837;28;20084;-78
2022/11/09 12:58:23;;;;;;;7.05;1.30;;;16.40;99.90;;;;;;5039575;28;20100;-75
2022/11/09 13:00:52;;;;;;;11.35;1.50;;;16.50;99.90;;;;;;5032848;28;20072;-75
2022/11/09 13:03:34;;;;;;;6.95;1.42;;;16.80;99.90;;;;;;5042321;28;20088;-77
2022/11/09 13:06:15;;;;;;;7.40;1.70;;;17.30;99.90;;;;;;5042376;28;20091;-75